sensor_id;sensor_type;location;lat;lon;timestamp;temperature;humidity
6536;DHT22;34330;52.08032700;5.40923460;2022-09-02T00:01:36;21.00;44.70
6536;DHT22;34330;52.08032700;5.40923460;2022-09-02T00:04:06;21.00;44.60
6536;DHT22;34330;52.08032700;5.40923460;2022-09-02T00:06:36;21.00;44.60
6536;DHT22;34330;52.08032700;5.40923460;2022-09-02T00:09:06;21.00;44.40
6536;DHT22;34330;52.08032700;5.40923460;2022-09-02T00:11:36;21.00;44.50
6536;DHT22;34330;52.08032700;5.40923460;2022-09-02T00:14:07;20.90;44.50
6536;DHT22;34330;52.08032700;5.40923460;2022-09-02T00:16:37;20.90;44.60
6536;DHT22;34330;52.08032700;5.40923460;2022-09-02T00:19:07;20.90;44.70
6536;DHT22;34330;52.08032700;5.40923460;2022-09-02T00:21:38;20.90;44.80
6536;DHT22;34330;52.08032700;5.40923460;2022-09-02T00:24:06;20.80;44.80
6536;DHT22;34330;52.08032700;5.40923460;2022-09-02T00:26:34;20.80;45.00
6536;DHT22;34330;52.08032700;5.40923460;2022-09-02T00:29:02;20.70;45.20
6536;DHT22;34330;52.08032700;5.40923460;2022-09-02T00:31:30;20.70;45.30
6536;DHT22;34330;52.08032700;5.40923460;2022-09-02T00:33:59;20.70;45.20
6536;DHT22;34330;52.08032700;5.40923460;2022-09-02T00:38:57;20.60;45.20
6536;DHT22;34330;52.08032700;5.40923460;2022-09-02T00:41:26;20.50;45.00
6536;DHT22;34330;52.08032700;5.40923460;2022-09-02T00:43:56;20.50;44.80
6536;DHT22;34330;52.08032700;5.40923460;2022-09-02T00:46:26;20.40;45.60
6536;DHT22;34330;52.08032700;5.40923460;2022-09-02T00:49:00;20.30;45.50
6536;DHT22;34330;52.08032700;5.40923460;2022-09-02T00:51:33;20.30;45.30
6536;DHT22;34330;52.08032700;5.40923460;2022-09-02T00:54:05;20.40;45.30
6536;DHT22;34330;52.08032700;5.40923460;2022-09-02T00:56:36;20.40;45.30
6536;DHT22;34330;52.08032700;5.40923460;2022-09-02T00:59:06;20.30;45.10
6536;DHT22;34330;52.08032700;5.40923460;2022-09-02T01:04:03;20.30;45.10
6536;DHT22;34330;52.08032700;5.40923460;2022-09-02T01:06:31;20.30;45.10
6536;DHT22;34330;52.08032700;5.40923460;2022-09-02T01:09:03;20.30;45.20
6536;DHT22;34330;52.08032700;5.40923460;2022-09-02T01:11:44;20.20;45.20
6536;DHT22;34330;52.08032700;5.40923460;2022-09-02T01:14:14;20.20;45.10
6536;DHT22;34330;52.08032700;5.40923460;2022-09-02T01:16:44;20.20;45.30
6536;DHT22;34330;52.08032700;5.40923460;2022-09-02T01:19:20;20.10;45.20
6536;DHT22;34330;52.08032700;5.40923460;2022-09-02T01:21:51;20.10;45.30
6536;DHT22;34330;52.08032700;5.40923460;2022-09-02T01:24:20;20.10;45.50
6536;DHT22;34330;52.08032700;5.40923460;2022-09-02T01:26:51;20.00;45.40
6536;DHT22;34330;52.08032700;5.40923460;2022-09-02T01:29:20;20.00;45.50
6536;DHT22;34330;52.08032700;5.40923460;2022-09-02T01:34:17;20.00;46.00
6536;DHT22;34330;52.08032700;5.40923460;2022-09-02T01:36:45;19.90;46.00
6536;DHT22;34330;52.08032700;5.40923460;2022-09-02T01:39:14;19.90;45.90
6536;DHT22;34330;52.08032700;5.40923460;2022-09-02T01:41:43;19.90;45.90
6536;DHT22;34330;52.08032700;5.40923460;2022-09-02T01:46:40;19.90;45.90
6536;DHT22;34330;52.08032700;5.40923460;2022-09-02T01:49:08;19.90;45.90
6536;DHT22;34330;52.08032700;5.40923460;2022-09-02T01:51:36;19.80;45.90
6536;DHT22;34330;52.08032700;5.40923460;2022-09-02T01:56:34;19.80;46.00
6536;DHT22;34330;52.08032700;5.40923460;2022-09-02T01:59:02;19.80;46.00
6536;DHT22;34330;52.08032700;5.40923460;2022-09-02T02:01:30;19.80;46.00
6536;DHT22;34330;52.08032700;5.40923460;2022-09-02T02:08:55;19.70;46.20
6536;DHT22;34330;52.08032700;5.40923460;2022-09-02T02:11:24;19.70;46.10
6536;DHT22;34330;52.08032700;5.40923460;2022-09-02T02:13:53;19.70;46.10
6536;DHT22;34330;52.08032700;5.40923460;2022-09-02T02:18:49;19.70;46.30
6536;DHT22;34330;52.08032700;5.40923460;2022-09-02T02:23:46;19.60;46.80
6536;DHT22;34330;52.08032700;5.40923460;2022-09-02T02:28:42;19.60;46.70
6536;DHT22;34330;52.08032700;5.40923460;2022-09-02T02:31:11;19.60;47.20
6536;DHT22;34330;52.08032700;5.40923460;2022-09-02T02:33:40;19.60;47.00
6536;DHT22;34330;52.08032700;5.40923460;2022-09-02T02:36:08;19.60;47.00
6536;DHT22;34330;52.08032700;5.40923460;2022-09-02T02:38:37;19.60;47.20
6536;DHT22;34330;52.08032700;5.40923460;2022-09-02T02:41:05;20.40;47.90
6536;DHT22;34330;52.08032700;5.40923460;2022-09-02T02:43:34;19.50;47.30
6536;DHT22;34330;52.08032700;5.40923460;2022-09-02T02:46:02;19.50;47.20
6536;DHT22;34330;52.08032700;5.40923460;2022-09-02T02:48:33;19.50;47.40
6536;DHT22;34330;52.08032700;5.40923460;2022-09-02T02:51:01;19.50;47.40
6536;DHT22;34330;52.08032700;5.40923460;2022-09-02T02:53:30;19.50;47.50
6536;DHT22;34330;52.08032700;5.40923460;2022-09-02T02:55:58;19.40;47.30
6536;DHT22;34330;52.08032700;5.40923460;2022-09-02T02:58:26;19.40;47.20
6536;DHT22;34330;52.08032700;5.40923460;2022-09-02T03:00:57;19.40;47.50
6536;DHT22;34330;52.08032700;5.40923460;2022-09-02T03:03:26;19.40;47.70
6536;DHT22;34330;52.08032700;5.40923460;2022-09-02T03:05:55;19.40;47.80
6536;DHT22;34330;52.08032700;5.40923460;2022-09-02T03:08:23;19.30;47.00
6536;DHT22;34330;52.08032700;5.40923460;2022-09-02T03:10:53;19.30;47.60
6536;DHT22;34330;52.08032700;5.40923460;2022-09-02T03:13:22;19.30;47.80
6536;DHT22;34330;52.08032700;5.40923460;2022-09-02T03:15:52;19.30;47.80
6536;DHT22;34330;52.08032700;5.40923460;2022-09-02T03:18:20;19.30;47.70
6536;DHT22;34330;52.08032700;5.40923460;2022-09-02T03:20:48;19.30;47.80
6536;DHT22;34330;52.08032700;5.40923460;2022-09-02T03:23:18;19.20;48.60
6536;DHT22;34330;52.08032700;5.40923460;2022-09-02T03:25:46;19.10;48.40
6536;DHT22;34330;52.08032700;5.40923460;2022-09-02T03:28:14;21.50;50.30
6536;DHT22;34330;52.08032700;5.40923460;2022-09-02T03:30:44;19.20;48.20
6536;DHT22;34330;52.08032700;5.40923460;2022-09-02T03:33:12;19.20;48.30
6536;DHT22;34330;52.08032700;5.40923460;2022-09-02T03:35:42;19.20;48.10
6536;DHT22;34330;52.08032700;5.40923460;2022-09-02T03:38:11;19.20;48.40
6536;DHT22;34330;52.08032700;5.40923460;2022-09-02T03:40:41;19.20;48.40
6536;DHT22;34330;52.08032700;5.40923460;2022-09-02T03:43:10;19.10;48.10
6536;DHT22;34330;52.08032700;5.40923460;2022-09-02T03:45:38;21.90;50.50
6536;DHT22;34330;52.08032700;5.40923460;2022-09-02T03:48:08;19.10;48.30
6536;DHT22;34330;52.08032700;5.40923460;2022-09-02T03:50:40;19.10;48.50
6536;DHT22;34330;52.08032700;5.40923460;2022-09-02T03:53:09;19.10;48.60
6536;DHT22;34330;52.08032700;5.40923460;2022-09-02T03:55:47;19.00;48.50
6536;DHT22;34330;52.08032700;5.40923460;2022-09-02T03:58:16;19.10;48.60
6536;DHT22;34330;52.08032700;5.40923460;2022-09-02T04:00:49;19.00;48.40
6536;DHT22;34330;52.08032700;5.40923460;2022-09-02T04:03:17;19.00;48.80
6536;DHT22;34330;52.08032700;5.40923460;2022-09-02T04:05:46;19.00;48.40
6536;DHT22;34330;52.08032700;5.40923460;2022-09-02T04:08:15;19.00;48.50
6536;DHT22;34330;52.08032700;5.40923460;2022-09-02T04:10:43;19.00;48.50
6536;DHT22;34330;52.08032700;5.40923460;2022-09-02T04:13:12;19.00;48.60
6536;DHT22;34330;52.08032700;5.40923460;2022-09-02T04:15:40;19.00;48.60
6536;DHT22;34330;52.08032700;5.40923460;2022-09-02T04:18:10;19.00;48.70
6536;DHT22;34330;52.08032700;5.40923460;2022-09-02T04:20:39;18.90;49.70
6536;DHT22;34330;52.08032700;5.40923460;2022-09-02T04:23:08;18.80;49.40
6536;DHT22;34330;52.08032700;5.40923460;2022-09-02T04:25:38;18.90;49.20
6536;DHT22;34330;52.08032700;5.40923460;2022-09-02T04:28:07;18.90;49.50
6536;DHT22;34330;52.08032700;5.40923460;2022-09-02T04:30:38;21.80;51.60
6536;DHT22;34330;52.08032700;5.40923460;2022-09-02T04:33:07;18.90;49.30
6536;DHT22;34330;52.08032700;5.40923460;2022-09-02T04:35:38;18.90;49.10
6536;DHT22;34330;52.08032700;5.40923460;2022-09-02T04:38:07;18.90;49.50
6536;DHT22;34330;52.08032700;5.40923460;2022-09-02T04:40:35;18.80;48.90
6536;DHT22;34330;52.08032700;5.40923460;2022-09-02T04:43:06;15.40;45.90
6536;DHT22;34330;52.08032700;5.40923460;2022-09-02T04:45:34;18.80;49.10
6536;DHT22;34330;52.08032700;5.40923460;2022-09-02T04:48:03;18.80;48.70
6536;DHT22;34330;52.08032700;5.40923460;2022-09-02T04:50:31;18.80;49.20
6536;DHT22;34330;52.08032700;5.40923460;2022-09-02T04:52:59;18.80;49.30
6536;DHT22;34330;52.08032700;5.40923460;2022-09-02T04:55:27;18.70;49.30
6536;DHT22;34330;52.08032700;5.40923460;2022-09-02T04:57:54;18.70;49.30
6536;DHT22;34330;52.08032700;5.40923460;2022-09-02T05:00:22;18.70;49.20
6536;DHT22;34330;52.08032700;5.40923460;2022-09-02T05:02:51;18.70;49.30
6536;DHT22;34330;52.08032700;5.40923460;2022-09-02T05:05:21;18.70;49.50
6536;DHT22;34330;52.08032700;5.40923460;2022-09-02T05:07:49;18.70;49.50
6536;DHT22;34330;52.08032700;5.40923460;2022-09-02T05:10:17;18.70;49.50
6536;DHT22;34330;52.08032700;5.40923460;2022-09-02T05:12:45;18.70;49.20
6536;DHT22;34330;52.08032700;5.40923460;2022-09-02T05:15:13;18.70;49.40
6536;DHT22;34330;52.08032700;5.40923460;2022-09-02T05:17:41;18.60;50.30
6536;DHT22;34330;52.08032700;5.40923460;2022-09-02T05:20:09;18.60;50.20
6536;DHT22;34330;52.08032700;5.40923460;2022-09-02T05:22:39;18.60;51.00
6536;DHT22;34330;52.08032700;5.40923460;2022-09-02T05:25:07;18.60;50.80
6536;DHT22;34330;52.08032700;5.40923460;2022-09-02T05:27:36;18.60;50.60
6536;DHT22;34330;52.08032700;5.40923460;2022-09-02T05:30:05;18.70;50.30
6536;DHT22;34330;52.08032700;5.40923460;2022-09-02T05:32:33;18.70;50.40
6536;DHT22;34330;52.08032700;5.40923460;2022-09-02T05:35:04;18.80;50.20
6536;DHT22;34330;52.08032700;5.40923460;2022-09-02T05:37:33;18.70;49.60
6536;DHT22;34330;52.08032700;5.40923460;2022-09-02T05:40:04;18.70;50.20
6536;DHT22;34330;52.08032700;5.40923460;2022-09-02T05:42:33;18.70;50.30
6536;DHT22;34330;52.08032700;5.40923460;2022-09-02T05:45:01;18.80;50.10
6536;DHT22;34330;52.08032700;5.40923460;2022-09-02T05:47:30;18.80;50.40
6536;DHT22;34330;52.08032700;5.40923460;2022-09-02T05:49:57;18.80;50.10
6536;DHT22;34330;52.08032700;5.40923460;2022-09-02T05:52:29;18.80;50.30
6536;DHT22;34330;52.08032700;5.40923460;2022-09-02T05:54:57;18.80;50.30
6536;DHT22;34330;52.08032700;5.40923460;2022-09-02T05:57:27;18.90;50.60
6536;DHT22;34330;52.08032700;5.40923460;2022-09-02T05:59:55;18.90;50.40
6536;DHT22;34330;52.08032700;5.40923460;2022-09-02T06:02:24;18.90;50.40
6536;DHT22;34330;52.08032700;5.40923460;2022-09-02T06:04:53;18.90;50.80
6536;DHT22;34330;52.08032700;5.40923460;2022-09-02T06:07:23;19.00;50.50
6536;DHT22;34330;52.08032700;5.40923460;2022-09-02T06:09:52;19.00;50.10
6536;DHT22;34330;52.08032700;5.40923460;2022-09-02T06:12:20;19.00;50.80
6536;DHT22;34330;52.08032700;5.40923460;2022-09-02T06:14:50;19.00;50.60
6536;DHT22;34330;52.08032700;5.40923460;2022-09-02T06:17:18;19.10;50.80
6536;DHT22;34330;52.08032700;5.40923460;2022-09-02T06:19:46;20.40;51.70
6536;DHT22;34330;52.08032700;5.40923460;2022-09-02T06:22:18;19.20;50.40
6536;DHT22;34330;52.08032700;5.40923460;2022-09-02T06:24:46;19.20;50.40
6536;DHT22;34330;52.08032700;5.40923460;2022-09-02T06:27:14;19.20;50.60
6536;DHT22;34330;52.08032700;5.40923460;2022-09-02T06:29:41;19.30;50.40
6536;DHT22;34330;52.08032700;5.40923460;2022-09-02T06:32:11;19.30;50.40
6536;DHT22;34330;52.08032700;5.40923460;2022-09-02T06:34:39;19.40;50.60
6536;DHT22;34330;52.08032700;5.40923460;2022-09-02T06:37:06;19.40;50.30
6536;DHT22;34330;52.08032700;5.40923460;2022-09-02T06:39:34;19.50;50.40
6536;DHT22;34330;52.08032700;5.40923460;2022-09-02T06:42:03;19.60;50.30
6536;DHT22;34330;52.08032700;5.40923460;2022-09-02T06:44:31;19.70;50.20
6536;DHT22;34330;52.08032700;5.40923460;2022-09-02T06:46:59;19.70;50.10
6536;DHT22;34330;52.08032700;5.40923460;2022-09-02T06:49:29;21.00;51.20
6536;DHT22;34330;52.08032700;5.40923460;2022-09-02T06:51:57;19.90;50.20
6536;DHT22;34330;52.08032700;5.40923460;2022-09-02T06:54:26;20.00;50.20
6536;DHT22;34330;52.08032700;5.40923460;2022-09-02T06:56:54;20.10;50.00
6536;DHT22;34330;52.08032700;5.40923460;2022-09-02T06:59:21;20.20;49.70
6536;DHT22;34330;52.08032700;5.40923460;2022-09-02T07:01:50;20.30;49.50
6536;DHT22;34330;52.08032700;5.40923460;2022-09-02T07:04:18;20.40;49.60
6536;DHT22;34330;52.08032700;5.40923460;2022-09-02T07:07:07;20.50;49.90
6536;DHT22;34330;52.08032700;5.40923460;2022-09-02T07:09:35;20.60;49.80
6536;DHT22;34330;52.08032700;5.40923460;2022-09-02T07:12:04;20.70;49.40
6536;DHT22;34330;52.08032700;5.40923460;2022-09-02T07:14:36;20.70;49.90
6536;DHT22;34330;52.08032700;5.40923460;2022-09-02T07:17:04;20.80;49.70
6536;DHT22;34330;52.08032700;5.40923460;2022-09-02T07:19:34;20.80;49.40
6536;DHT22;34330;52.08032700;5.40923460;2022-09-02T07:22:02;20.90;49.50
6536;DHT22;34330;52.08032700;5.40923460;2022-09-02T07:24:32;21.00;49.20
6536;DHT22;34330;52.08032700;5.40923460;2022-09-02T07:26:59;21.10;49.00
6536;DHT22;34330;52.08032700;5.40923460;2022-09-02T07:29:27;21.30;49.20
6536;DHT22;34330;52.08032700;5.40923460;2022-09-02T07:31:55;21.40;48.90
6536;DHT22;34330;52.08032700;5.40923460;2022-09-02T07:34:24;21.50;48.80
6536;DHT22;34330;52.08032700;5.40923460;2022-09-02T07:36:52;21.60;48.70
6536;DHT22;34330;52.08032700;5.40923460;2022-09-02T07:39:24;21.70;48.50
6536;DHT22;34330;52.08032700;5.40923460;2022-09-02T07:41:54;21.80;48.20
6536;DHT22;34330;52.08032700;5.40923460;2022-09-02T07:44:22;21.90;48.10
6536;DHT22;34330;52.08032700;5.40923460;2022-09-02T07:46:50;21.90;47.90
6536;DHT22;34330;52.08032700;5.40923460;2022-09-02T07:49:19;25.10;50.70
6536;DHT22;34330;52.08032700;5.40923460;2022-09-02T07:51:50;24.70;49.90
6536;DHT22;34330;52.08032700;5.40923460;2022-09-02T07:54:21;22.10;47.50
6536;DHT22;34330;52.08032700;5.40923460;2022-09-02T07:56:50;22.20;47.70
6536;DHT22;34330;52.08032700;5.40923460;2022-09-02T07:59:20;22.20;47.70
6536;DHT22;34330;52.08032700;5.40923460;2022-09-02T08:01:48;22.20;47.90
6536;DHT22;34330;52.08032700;5.40923460;2022-09-02T08:04:19;22.30;48.10
6536;DHT22;34330;52.08032700;5.40923460;2022-09-02T08:06:49;22.30;48.20
6536;DHT22;34330;52.08032700;5.40923460;2022-09-02T08:09:19;22.40;48.50
6536;DHT22;34330;52.08032700;5.40923460;2022-09-02T08:11:48;22.50;48.30
6536;DHT22;34330;52.08032700;5.40923460;2022-09-02T08:14:20;22.50;48.20
6536;DHT22;34330;52.08032700;5.40923460;2022-09-02T08:16:51;24.40;50.00
6536;DHT22;34330;52.08032700;5.40923460;2022-09-02T08:19:21;24.70;50.20
6536;DHT22;34330;52.08032700;5.40923460;2022-09-02T08:21:49;22.70;48.60
6536;DHT22;34330;52.08032700;5.40923460;2022-09-02T08:24:17;22.70;48.10
6536;DHT22;34330;52.08032700;5.40923460;2022-09-02T08:26:45;22.80;48.40
6536;DHT22;34330;52.08032700;5.40923460;2022-09-02T08:29:12;24.40;49.60
6536;DHT22;34330;52.08032700;5.40923460;2022-09-02T08:31:42;24.30;49.70
6536;DHT22;34330;52.08032700;5.40923460;2022-09-02T08:34:10;23.00;48.30
6536;DHT22;34330;52.08032700;5.40923460;2022-09-02T08:36:38;23.10;48.20
6536;DHT22;34330;52.08032700;5.40923460;2022-09-02T08:39:22;23.10;48.00
6536;DHT22;34330;52.08032700;5.40923460;2022-09-02T08:41:56;24.80;49.00
6536;DHT22;34330;52.08032700;5.40923460;2022-09-02T08:44:29;23.30;48.00
6536;DHT22;34330;52.08032700;5.40923460;2022-09-02T08:47:02;23.40;48.00
6536;DHT22;34330;52.08032700;5.40923460;2022-09-02T08:49:33;23.40;47.70
6536;DHT22;34330;52.08032700;5.40923460;2022-09-02T08:52:04;25.60;49.20
6536;DHT22;34330;52.08032700;5.40923460;2022-09-02T08:54:38;23.60;47.50
6536;DHT22;34330;52.08032700;5.40923460;2022-09-02T08:57:08;23.70;47.60
6536;DHT22;34330;52.08032700;5.40923460;2022-09-02T08:59:37;24.90;48.30
6536;DHT22;34330;52.08032700;5.40923460;2022-09-02T09:02:16;23.80;47.20
6536;DHT22;34330;52.08032700;5.40923460;2022-09-02T09:05:06;26.10;49.20
6536;DHT22;34330;52.08032700;5.40923460;2022-09-02T09:07:38;23.90;47.50
6536;DHT22;34330;52.08032700;5.40923460;2022-09-02T09:10:20;24.00;47.50
6536;DHT22;34330;52.08032700;5.40923460;2022-09-02T09:13:00;24.10;47.40
6536;DHT22;34330;52.08032700;5.40923460;2022-09-02T09:15:36;24.20;47.40
6536;DHT22;34330;52.08032700;5.40923460;2022-09-02T09:18:11;24.30;47.80
6536;DHT22;34330;52.08032700;5.40923460;2022-09-02T09:20:43;24.40;47.30
6536;DHT22;34330;52.08032700;5.40923460;2022-09-02T09:23:20;24.50;47.70
6536;DHT22;34330;52.08032700;5.40923460;2022-09-02T09:25:52;27.30;49.10
6536;DHT22;34330;52.08032700;5.40923460;2022-09-02T09:28:22;24.60;47.10
6536;DHT22;34330;52.08032700;5.40923460;2022-09-02T09:30:50;24.70;46.80
6536;DHT22;34330;52.08032700;5.40923460;2022-09-02T09:33:21;24.80;46.80
6536;DHT22;34330;52.08032700;5.40923460;2022-09-02T09:35:50;24.90;46.80
6536;DHT22;34330;52.08032700;5.40923460;2022-09-02T09:38:28;24.90;46.50
6536;DHT22;34330;52.08032700;5.40923460;2022-09-02T09:41:12;25.00;46.70
6536;DHT22;34330;52.08032700;5.40923460;2022-09-02T09:43:43;25.10;46.90
6536;DHT22;34330;52.08032700;5.40923460;2022-09-02T09:46:26;25.10;46.80
6536;DHT22;34330;52.08032700;5.40923460;2022-09-02T09:48:55;25.20;46.90
6536;DHT22;34330;52.08032700;5.40923460;2022-09-02T09:51:23;25.30;46.50
6536;DHT22;34330;52.08032700;5.40923460;2022-09-02T09:53:51;25.40;46.40
6536;DHT22;34330;52.08032700;5.40923460;2022-09-02T09:56:30;25.40;46.30
6536;DHT22;34330;52.08032700;5.40923460;2022-09-02T09:59:06;26.80;48.00
6536;DHT22;34330;52.08032700;5.40923460;2022-09-02T10:01:34;25.50;46.30
6536;DHT22;34330;52.08032700;5.40923460;2022-09-02T10:04:07;25.60;46.40
6536;DHT22;34330;52.08032700;5.40923460;2022-09-02T10:06:56;25.60;46.20
6536;DHT22;34330;52.08032700;5.40923460;2022-09-02T10:09:32;26.00;46.40
6536;DHT22;34330;52.08032700;5.40923460;2022-09-02T10:12:02;25.70;45.90
6536;DHT22;34330;52.08032700;5.40923460;2022-09-02T10:14:34;25.80;46.00
6536;DHT22;34330;52.08032700;5.40923460;2022-09-02T10:17:20;25.90;46.50
6536;DHT22;34330;52.08032700;5.40923460;2022-09-02T10:19:55;27.20;46.90
6536;DHT22;34330;52.08032700;5.40923460;2022-09-02T10:22:54;26.10;45.90
6536;DHT22;34330;52.08032700;5.40923460;2022-09-02T10:25:33;26.10;46.10
6536;DHT22;34330;52.08032700;5.40923460;2022-09-02T10:28:11;26.30;46.00
6536;DHT22;34330;52.08032700;5.40923460;2022-09-02T10:30:48;26.40;45.70
6536;DHT22;34330;52.08032700;5.40923460;2022-09-02T10:33:27;26.40;45.80
6536;DHT22;34330;52.08032700;5.40923460;2022-09-02T10:36:04;26.50;45.60
6536;DHT22;34330;52.08032700;5.40923460;2022-09-02T10:38:38;29.60;47.40
6536;DHT22;34330;52.08032700;5.40923460;2022-09-02T10:41:17;29.80;47.30
6536;DHT22;34330;52.08032700;5.40923460;2022-09-02T10:44:06;26.90;45.30
6536;DHT22;34330;52.08032700;5.40923460;2022-09-02T10:46:44;27.00;44.90
6536;DHT22;34330;52.08032700;5.40923460;2022-09-02T10:49:23;27.10;44.80
6536;DHT22;34330;52.08032700;5.40923460;2022-09-02T10:52:04;27.20;44.80
6536;DHT22;34330;52.08032700;5.40923460;2022-09-02T10:54:42;27.30;44.60
6536;DHT22;34330;52.08032700;5.40923460;2022-09-02T10:57:18;27.40;44.50
6536;DHT22;34330;52.08032700;5.40923460;2022-09-02T10:59:49;27.50;44.20
6536;DHT22;34330;52.08032700;5.40923460;2022-09-02T11:02:22;27.60;44.40
6536;DHT22;34330;52.08032700;5.40923460;2022-09-02T11:04:54;30.00;45.70
6536;DHT22;34330;52.08032700;5.40923460;2022-09-02T11:07:29;27.80;43.70
6536;DHT22;34330;52.08032700;5.40923460;2022-09-02T11:10:02;27.80;43.70
6536;DHT22;34330;52.08032700;5.40923460;2022-09-02T11:12:35;27.90;43.70
6536;DHT22;34330;52.08032700;5.40923460;2022-09-02T11:15:10;27.90;43.20
6536;DHT22;34330;52.08032700;5.40923460;2022-09-02T11:17:44;28.10;43.20
6536;DHT22;34330;52.08032700;5.40923460;2022-09-02T11:20:28;28.00;43.40
6536;DHT22;34330;52.08032700;5.40923460;2022-09-02T11:23:03;28.10;43.00
6536;DHT22;34330;52.08032700;5.40923460;2022-09-02T11:25:38;26.20;41.60
6536;DHT22;34330;52.08032700;5.40923460;2022-09-02T11:28:26;30.90;43.60
6536;DHT22;34330;52.08032700;5.40923460;2022-09-02T11:31:00;28.20;42.20
6536;DHT22;34330;52.08032700;5.40923460;2022-09-02T11:33:42;28.30;42.40
6536;DHT22;34330;52.08032700;5.40923460;2022-09-02T11:36:12;28.40;42.10
6536;DHT22;34330;52.08032700;5.40923460;2022-09-02T11:38:43;30.10;42.50
6536;DHT22;34330;52.08032700;5.40923460;2022-09-02T11:41:29;28.60;41.30
6536;DHT22;34330;52.08032700;5.40923460;2022-09-02T11:44:18;28.70;41.20
6536;DHT22;34330;52.08032700;5.40923460;2022-09-02T11:47:14;28.80;41.30
6536;DHT22;34330;52.08032700;5.40923460;2022-09-02T11:50:03;28.80;40.80
6536;DHT22;34330;52.08032700;5.40923460;2022-09-02T11:52:54;29.70;40.70
6536;DHT22;34330;52.08032700;5.40923460;2022-09-02T11:55:30;28.90;39.90
6536;DHT22;34330;52.08032700;5.40923460;2022-09-02T11:58:01;29.00;40.20
6536;DHT22;34330;52.08032700;5.40923460;2022-09-02T12:00:32;29.00;39.70
6536;DHT22;34330;52.08032700;5.40923460;2022-09-02T12:03:14;29.10;39.30
6536;DHT22;34330;52.08032700;5.40923460;2022-09-02T12:06:08;29.10;38.80
6536;DHT22;34330;52.08032700;5.40923460;2022-09-02T12:09:09;29.10;39.00
6536;DHT22;34330;52.08032700;5.40923460;2022-09-02T12:11:47;30.50;39.80
6536;DHT22;34330;52.08032700;5.40923460;2022-09-02T12:17:34;29.30;38.20
6536;DHT22;34330;52.08032700;5.40923460;2022-09-02T12:20:04;29.30;38.70
6536;DHT22;34330;52.08032700;5.40923460;2022-09-02T12:22:36;29.70;38.10
6536;DHT22;34330;52.08032700;5.40923460;2022-09-02T12:25:41;29.40;37.10
6536;DHT22;34330;52.08032700;5.40923460;2022-09-02T12:28:24;29.40;37.00
6536;DHT22;34330;52.08032700;5.40923460;2022-09-02T12:31:14;29.30;35.70
6536;DHT22;34330;52.08032700;5.40923460;2022-09-02T12:33:48;29.20;35.90
6536;DHT22;34330;52.08032700;5.40923460;2022-09-02T12:36:44;29.10;36.30
6536;DHT22;34330;52.08032700;5.40923460;2022-09-02T12:39:49;27.90;36.00
6536;DHT22;34330;52.08032700;5.40923460;2022-09-02T12:42:23;28.90;36.90
6536;DHT22;34330;52.08032700;5.40923460;2022-09-02T12:45:02;28.80;37.10
6536;DHT22;34330;52.08032700;5.40923460;2022-09-02T12:47:42;29.90;37.80
6536;DHT22;34330;52.08032700;5.40923460;2022-09-02T12:50:19;28.70;37.00
6536;DHT22;34330;52.08032700;5.40923460;2022-09-02T12:52:50;28.60;37.20
6536;DHT22;34330;52.08032700;5.40923460;2022-09-02T12:55:21;28.60;37.40
6536;DHT22;34330;52.08032700;5.40923460;2022-09-02T12:57:51;28.60;37.60
6536;DHT22;34330;52.08032700;5.40923460;2022-09-02T13:00:33;28.60;37.60
6536;DHT22;34330;52.08032700;5.40923460;2022-09-02T13:03:20;28.50;37.50
6536;DHT22;34330;52.08032700;5.40923460;2022-09-02T13:05:55;28.50;37.60
6536;DHT22;34330;52.08032700;5.40923460;2022-09-02T13:09:05;28.40;38.00
6536;DHT22;34330;52.08032700;5.40923460;2022-09-02T13:14:52;28.30;38.40
6536;DHT22;34330;52.08032700;5.40923460;2022-09-02T13:17:27;28.30;38.00
6536;DHT22;34330;52.08032700;5.40923460;2022-09-02T13:20:42;28.30;38.00
6536;DHT22;34330;52.08032700;5.40923460;2022-09-02T13:23:31;28.30;38.10
6536;DHT22;34330;52.08032700;5.40923460;2022-09-02T13:26:14;28.30;37.80
6536;DHT22;34330;52.08032700;5.40923460;2022-09-02T13:29:44;28.30;37.90
6536;DHT22;34330;52.08032700;5.40923460;2022-09-02T13:32:23;28.30;38.20
6536;DHT22;34330;52.08032700;5.40923460;2022-09-02T13:34:53;28.30;37.70
6536;DHT22;34330;52.08032700;5.40923460;2022-09-02T13:37:27;30.80;39.40
6536;DHT22;34330;52.08032700;5.40923460;2022-09-02T13:39:56;28.40;37.70
6536;DHT22;34330;52.08032700;5.40923460;2022-09-02T13:42:26;28.50;37.70
6536;DHT22;34330;52.08032700;5.40923460;2022-09-02T13:45:12;28.60;37.60
6536;DHT22;34330;52.08032700;5.40923460;2022-09-02T13:47:43;28.60;37.50
6536;DHT22;34330;52.08032700;5.40923460;2022-09-02T13:50:13;29.90;38.60
6536;DHT22;34330;52.08032700;5.40923460;2022-09-02T13:52:44;28.80;38.00
6536;DHT22;34330;52.08032700;5.40923460;2022-09-02T13:55:34;28.90;37.70
6536;DHT22;34330;52.08032700;5.40923460;2022-09-02T13:58:21;29.00;37.20
6536;DHT22;34330;52.08032700;5.40923460;2022-09-02T14:00:50;29.00;37.30
6536;DHT22;34330;52.08032700;5.40923460;2022-09-02T14:03:22;29.20;37.30
6536;DHT22;34330;52.08032700;5.40923460;2022-09-02T14:05:53;27.00;35.60
6536;DHT22;34330;52.08032700;5.40923460;2022-09-02T14:08:24;30.90;38.40
6536;DHT22;34330;52.08032700;5.40923460;2022-09-02T14:10:54;32.20;38.90
6536;DHT22;34330;52.08032700;5.40923460;2022-09-02T14:13:23;29.50;36.80
6536;DHT22;34330;52.08032700;5.40923460;2022-09-02T14:15:52;29.60;36.50
6536;DHT22;34330;52.08032700;5.40923460;2022-09-02T14:18:22;29.80;36.30
6536;DHT22;34330;52.08032700;5.40923460;2022-09-02T14:20:55;29.80;35.50
6536;DHT22;34330;52.08032700;5.40923460;2022-09-02T14:23:24;29.90;35.80
6536;DHT22;34330;52.08032700;5.40923460;2022-09-02T14:25:54;30.00;35.90
6536;DHT22;34330;52.08032700;5.40923460;2022-09-02T14:28:24;30.20;35.50
6536;DHT22;34330;52.08032700;5.40923460;2022-09-02T14:31:01;33.20;37.40
6536;DHT22;34330;52.08032700;5.40923460;2022-09-02T14:33:41;30.40;35.40
6536;DHT22;34330;52.08032700;5.40923460;2022-09-02T14:36:12;30.80;35.10